createdAt,value
2016-09-11T11:29:00.438Z,1014.41
2016-09-11T11:29:41.133Z,1014.4
2016-09-11T11:30:21.869Z,1014.41
2016-09-11T11:31:02.690Z,1014.43
2016-09-11T11:34:44.246Z,1014.4
2016-09-11T11:35:24.995Z,1014.44
2016-09-11T11:36:05.717Z,1014.42
2016-09-11T11:36:46.556Z,1014.4
2016-09-11T11:37:27.402Z,1014.46
2016-09-11T11:38:08.190Z,1014.42
2016-09-11T11:38:48.958Z,1014.38
2016-09-11T11:39:29.703Z,1014.4
2016-09-11T11:40:10.597Z,1014.4
2016-09-11T11:40:51.362Z,1014.33
2016-09-11T11:41:32.121Z,1014.36
2016-09-11T11:42:12.918Z,1014.38
2016-09-11T11:42:53.694Z,1014.38
2016-09-11T11:43:35.025Z,1014.39
2016-09-11T11:44:16.193Z,1014.36
2016-09-11T11:44:56.955Z,1014.32
2016-09-11T11:45:38.672Z,1014.28
2016-09-11T11:46:19.475Z,1014.36
2016-09-11T11:47:00.195Z,1014.33
2016-09-11T11:47:41.245Z,1014.31
2016-09-11T11:48:28.175Z,1014.29
2016-09-11T11:49:22.334Z,1014.25
2016-09-11T11:50:04.731Z,1014.27
2016-09-11T11:50:44.492Z,1014.29
2016-09-11T11:51:25.505Z,1014.31
2016-09-11T11:52:06.999Z,1014.26
2016-09-11T11:52:47.934Z,1014.25
2016-09-11T11:53:28.754Z,1014.29
2016-09-11T11:54:09.647Z,1014.3
2016-09-11T11:54:50.447Z,1014.33
2016-09-11T11:55:31.305Z,1014.36
2016-09-11T11:56:12.046Z,1014.32
2016-09-11T11:56:52.825Z,1014.35
2016-09-11T11:57:33.657Z,1014.34
2016-09-11T12:00:03.789Z,1014.35
2016-09-11T12:00:43.702Z,1014.3
2016-09-11T12:01:24.476Z,1014.32
2016-09-11T12:02:05.240Z,1014.29
2016-09-11T12:02:46.119Z,1014.33
2016-09-11T12:03:26.938Z,1014.33
2016-09-11T12:04:07.762Z,1014.3
2016-09-11T12:04:48.528Z,1014.35
2016-09-11T12:05:29.285Z,1014.25
2016-09-11T12:06:10.135Z,1014.28
2016-09-11T12:06:50.867Z,1014.27
2016-09-11T12:07:31.690Z,1014.29
2016-09-11T12:08:12.497Z,1014.28
2016-09-11T12:08:53.331Z,1014.28
2016-09-11T12:09:34.461Z,1014.26
2016-09-11T12:10:15.226Z,1014.27
2016-09-11T12:10:56.007Z,1014.22
2016-09-11T12:11:36.744Z,1014.25
2016-09-11T12:12:17.549Z,1014.23
2016-09-11T12:12:58.367Z,1014.25
2016-09-11T12:13:39.183Z,1014.28
2016-09-11T12:14:19.908Z,1014.29
2016-09-11T12:15:00.704Z,1014.3
2016-09-11T12:15:41.397Z,1014.26
2016-09-11T12:16:22.224Z,1014.26
2016-09-11T12:17:02.997Z,1014.29
2016-09-11T12:17:43.713Z,1014.24
2016-09-11T12:18:24.605Z,1014.28
2016-09-11T12:19:05.430Z,1014.28
2016-09-11T12:19:46.214Z,1014.23
2016-09-11T12:20:27.009Z,1014.22
2016-09-11T12:21:07.907Z,1014.21
2016-09-11T12:21:48.661Z,1014.21
2016-09-11T12:22:29.501Z,1014.22
2016-09-11T12:23:10.291Z,1014.25
2016-09-11T12:23:51.087Z,1014.27
2016-09-11T12:24:31.818Z,1014.25
2016-09-11T12:25:12.822Z,1014.19
2016-09-11T12:25:53.698Z,1014.17
2016-09-11T12:26:34.538Z,1014.23
2016-09-11T12:27:15.256Z,1014.19
2016-09-11T12:27:56.048Z,1014.18
2016-09-11T12:28:36.734Z,1014.24
2016-09-11T12:29:17.532Z,1014.21
2016-09-11T12:29:58.466Z,1014.2
2016-09-11T12:30:39.749Z,1014.2
2016-09-11T12:31:20.505Z,1014.25
2016-09-11T12:32:01.302Z,1014.21
2016-09-11T12:32:42.072Z,1014.17
2016-09-11T12:33:22.909Z,1014.19
2016-09-11T12:34:03.655Z,1014.16
2016-09-11T12:34:44.406Z,1014.18
2016-09-11T12:35:25.203Z,1014.13
2016-09-11T12:36:05.993Z,1014.12
2016-09-11T12:36:46.777Z,1014.07
2016-09-11T12:37:27.514Z,1014.11
2016-09-11T12:38:08.319Z,1014.09
2016-09-11T12:38:49.039Z,1014.07
2016-09-11T12:39:29.908Z,1014.11
2016-09-11T12:40:10.943Z,1014.06
2016-09-11T12:40:52.041Z,1014.09
2016-09-11T12:41:33.214Z,1014.06
2016-09-11T12:42:14.109Z,1014.03
2016-09-11T12:42:55.227Z,1014.07
2016-09-11T12:43:36.113Z,1014.01
2016-09-11T12:44:16.944Z,1014.07
2016-09-11T12:44:57.664Z,1014.01
2016-09-11T12:45:38.503Z,1014.05
2016-09-11T12:46:19.318Z,1013.97
2016-09-11T12:47:00.138Z,1014.01
2016-09-11T12:47:40.978Z,1014.04
2016-09-11T12:48:21.740Z,1013.98
2016-09-11T12:49:03.102Z,1014.02
2016-09-11T12:49:43.663Z,1013.99
2016-09-11T12:50:24.467Z,1013.97
2016-09-11T12:51:05.252Z,1013.97
2016-09-11T12:51:46.006Z,1013.94
2016-09-11T12:52:26.820Z,1013.93
2016-09-11T12:53:07.568Z,1013.99
2016-09-11T12:53:48.373Z,1013.9
2016-09-11T12:54:29.197Z,1013.88
2016-09-11T12:55:10.339Z,1013.9
2016-09-11T12:55:51.172Z,1013.87
2016-09-11T12:56:32.027Z,1013.95
2016-09-11T12:57:12.762Z,1013.87
2016-09-11T12:57:53.746Z,1013.81
2016-09-11T12:58:34.743Z,1013.81
2016-09-11T12:59:15.573Z,1013.82
2016-09-11T12:59:57.258Z,1013.83
2016-09-11T13:00:39.492Z,1013.87
2016-09-11T13:01:20.998Z,1013.8
2016-09-11T13:02:02.635Z,1013.84
2016-09-11T13:02:43.632Z,1013.82
2016-09-11T13:03:24.585Z,1013.79
2016-09-11T13:04:05.412Z,1013.8
2016-09-11T13:04:46.170Z,1013.84
2016-09-11T13:05:26.965Z,1013.84
2016-09-11T13:06:07.732Z,1013.85
2016-09-11T13:06:48.570Z,1013.79
2016-09-11T13:07:29.349Z,1013.76
2016-09-11T13:08:10.102Z,1013.76
2016-09-11T13:08:50.889Z,1013.75
2016-09-11T13:09:31.664Z,1013.79
2016-09-11T13:10:12.877Z,1013.76
2016-09-11T13:10:53.687Z,1013.75
2016-09-11T13:11:34.543Z,1013.78
2016-09-11T13:12:15.300Z,1013.76
2016-09-11T13:12:56.036Z,1013.77
2016-09-11T13:13:36.800Z,1013.81
2016-09-11T13:14:17.880Z,1013.8
2016-09-11T13:14:58.755Z,1013.79
2016-09-11T13:15:39.506Z,1013.73
2016-09-11T13:16:20.289Z,1013.72
2016-09-11T13:17:01.165Z,1013.75
2016-09-11T13:17:41.918Z,1013.72
2016-09-11T13:18:22.648Z,1013.77
2016-09-11T13:19:03.467Z,1013.74
2016-09-11T13:19:44.273Z,1013.75
2016-09-11T13:20:25.206Z,1013.73
2016-09-11T13:21:05.986Z,1013.78
2016-09-11T13:21:47.007Z,1013.74
2016-09-11T13:22:27.885Z,1013.69
2016-09-11T13:23:08.691Z,1013.68
2016-09-11T13:23:49.487Z,1013.67
2016-09-11T13:24:30.272Z,1013.76
2016-09-11T13:25:11.063Z,1013.66
2016-09-11T13:25:51.948Z,1013.64
2016-09-11T13:26:32.714Z,1013.68
2016-09-11T13:27:13.489Z,1013.64
2016-09-11T13:27:54.246Z,1013.66
2016-09-11T13:28:35.031Z,1013.66
2016-09-11T13:29:15.816Z,1013.72
2016-09-11T13:29:56.566Z,1013.7
2016-09-11T13:30:38.208Z,1013.64
2016-09-11T13:31:19.027Z,1013.61
2016-09-11T13:31:59.789Z,1013.6
2016-09-11T13:32:40.559Z,1013.57
2016-09-11T13:33:21.317Z,1013.65
2016-09-11T13:34:02.631Z,1013.63
2016-09-11T13:34:43.427Z,1013.59
2016-09-11T13:35:24.391Z,1013.59
2016-09-11T13:36:05.206Z,1013.55
2016-09-11T13:36:46.093Z,1013.58
2016-09-11T13:37:26.934Z,1013.57
2016-09-11T13:38:07.689Z,1013.59
2016-09-11T13:38:48.496Z,1013.62
2016-09-11T13:39:29.234Z,1013.55
2016-09-11T13:40:10.129Z,1013.53
2016-09-11T13:40:50.991Z,1013.56
2016-09-11T13:41:31.738Z,1013.66
2016-09-11T13:42:12.549Z,1013.7
2016-09-11T13:42:53.362Z,1013.61
2016-09-11T13:43:34.202Z,1013.69
2016-09-11T13:44:15.013Z,1013.67
2016-09-11T13:44:56.267Z,1013.55
2016-09-11T13:45:37.111Z,1013.57
2016-09-11T13:46:17.845Z,1013.62
2016-09-11T13:46:58.594Z,1013.62
2016-09-11T13:47:39.382Z,1013.64
2016-09-11T13:48:20.124Z,1013.6
2016-09-11T13:49:00.947Z,1013.63
2016-09-11T13:49:41.752Z,1013.63
2016-09-11T13:50:22.495Z,1013.68
2016-09-11T13:51:03.454Z,1013.65
2016-09-11T13:51:44.335Z,1013.71
2016-09-11T13:52:25.183Z,1013.74
2016-09-11T13:53:06.754Z,1013.67
2016-09-11T13:53:47.725Z,1013.69
2016-09-11T13:54:28.452Z,1013.61
2016-09-11T13:55:09.195Z,1013.63
2016-09-11T13:55:50.141Z,1013.64
2016-09-11T13:56:30.926Z,1013.69
2016-09-11T13:57:11.793Z,1013.68
2016-09-11T13:57:52.690Z,1013.59
2016-09-11T13:58:33.412Z,1013.58
2016-09-11T13:59:14.150Z,1013.64
2016-09-11T13:59:55.007Z,1013.61
2016-09-11T14:00:35.823Z,1013.62
2016-09-11T14:01:16.548Z,1013.6
2016-09-11T14:01:57.370Z,1013.58
2016-09-11T14:02:38.302Z,1013.57
2016-09-11T14:03:19.126Z,1013.56
2016-09-11T14:03:59.909Z,1013.52
2016-09-11T14:04:40.843Z,1013.63
2016-09-11T14:05:21.619Z,1013.61
2016-09-11T14:06:02.465Z,1013.58
2016-09-11T14:06:43.332Z,1013.52
2016-09-11T14:07:24.144Z,1013.46
2016-09-11T14:08:04.879Z,1013.44
2016-09-11T14:08:45.655Z,1013.46
2016-09-11T14:09:26.458Z,1013.49
2016-09-11T14:10:07.241Z,1013.55
2016-09-11T14:10:48.021Z,1013.55
2016-09-11T14:11:28.728Z,1013.43
2016-09-11T14:12:10.094Z,1013.45
2016-09-11T14:12:51.171Z,1013.39
2016-09-11T14:13:32.013Z,1013.41
2016-09-11T14:14:12.791Z,1013.43
2016-09-11T14:14:53.556Z,1013.4
2016-09-11T14:15:34.433Z,1013.41
2016-09-11T14:16:15.211Z,1013.37
2016-09-11T14:16:56.012Z,1013.42
2016-09-11T14:17:37.078Z,1013.43
2016-09-11T14:18:18.021Z,1013.39
2016-09-11T14:19:00.128Z,1013.43
2016-09-11T14:19:40.713Z,1013.46
2016-09-11T14:20:21.706Z,1013.36
2016-09-11T14:21:02.963Z,1013.39
2016-09-11T14:21:43.838Z,1013.4
2016-09-11T14:22:24.601Z,1013.37
2016-09-11T14:23:05.414Z,1013.38
2016-09-11T14:23:46.353Z,1013.4
2016-09-11T14:24:27.129Z,1013.42
2016-09-11T14:25:07.896Z,1013.47
2016-09-11T14:25:48.691Z,1013.41
2016-09-11T14:26:29.557Z,1013.47
2016-09-11T14:27:10.590Z,1013.36
2016-09-11T14:27:51.249Z,1013.4
2016-09-11T14:28:32.195Z,1013.44
2016-09-11T14:29:13.014Z,1013.39
2016-09-11T14:29:53.727Z,1013.41
2016-09-11T14:30:34.546Z,1013.38
2016-09-11T14:31:15.296Z,1013.41
2016-09-11T14:31:56.070Z,1013.46
2016-09-11T14:32:36.835Z,1013.41
2016-09-11T14:33:17.637Z,1013.45
2016-09-11T14:33:58.375Z,1013.39
2016-09-11T14:34:39.186Z,1013.39
2016-09-11T14:35:19.971Z,1013.39
2016-09-11T14:36:00.714Z,1013.37
2016-09-11T14:36:41.495Z,1013.42
2016-09-11T14:37:22.406Z,1013.4
2016-09-11T14:38:03.035Z,1013.35
2016-09-11T14:38:43.855Z,1013.32
2016-09-11T14:39:24.553Z,1013.34
2016-09-11T14:40:05.292Z,1013.36
2016-09-11T14:40:46.058Z,1013.32
2016-09-11T14:41:26.789Z,1013.31
2016-09-11T14:42:07.887Z,1013.36
2016-09-11T14:42:48.599Z,1013.33
2016-09-11T14:43:29.361Z,1013.34
2016-09-11T14:44:10.124Z,1013.32
2016-09-11T14:44:50.950Z,1013.38
2016-09-11T14:45:31.760Z,1013.34
2016-09-11T14:46:12.680Z,1013.35
2016-09-11T14:46:53.461Z,1013.36
2016-09-11T14:47:34.186Z,1013.35
2016-09-11T14:48:15.009Z,1013.31
2016-09-11T14:48:55.857Z,1013.28
2016-09-11T14:49:36.598Z,1013.37
2016-09-11T14:50:17.990Z,1013.38
2016-09-11T14:50:59.647Z,1013.4
2016-09-11T14:51:40.361Z,1013.33
2016-09-11T14:52:21.110Z,1013.34
2016-09-11T14:53:01.915Z,1013.37
2016-09-11T14:53:42.608Z,1013.34
2016-09-11T14:54:23.346Z,1013.31
2016-09-11T14:55:04.224Z,1013.34
2016-09-11T14:55:44.969Z,1013.29
2016-09-11T14:56:25.706Z,1013.36
2016-09-11T14:57:06.740Z,1013.32
2016-09-11T14:57:47.459Z,1013.34
2016-09-11T14:58:28.195Z,1013.27
2016-09-11T14:59:08.919Z,1013.31
2016-09-11T14:59:49.637Z,1013.36
2016-09-11T15:00:30.369Z,1013.26
2016-09-11T15:01:11.194Z,1013.33
2016-09-11T15:01:52.972Z,1013.25
2016-09-11T15:02:33.757Z,1013.21
2016-09-11T15:03:15.066Z,1013.19
2016-09-11T15:03:55.832Z,1013.24
2016-09-11T15:04:36.644Z,1013.26
2016-09-11T15:05:17.754Z,1013.29
2016-09-11T15:05:58.550Z,1013.26
2016-09-11T15:06:39.291Z,1013.25
2016-09-11T15:07:20.049Z,1013.27
2016-09-11T15:08:00.872Z,1013.27
2016-09-11T15:08:41.713Z,1013.27
2016-09-11T15:09:22.848Z,1013.34
2016-09-11T15:10:03.903Z,1013.3
2016-09-11T15:10:44.886Z,1013.29
2016-09-11T15:11:25.584Z,1013.3
2016-09-11T15:12:06.761Z,1013.3
2016-09-11T15:12:47.531Z,1013.24
2016-09-11T15:13:28.237Z,1013.24
2016-09-11T15:14:08.958Z,1013.23
2016-09-11T15:14:49.856Z,1013.23
2016-09-11T15:15:30.700Z,1013.25
2016-09-11T15:16:12.080Z,1013.25
2016-09-11T15:16:52.862Z,1013.21
2016-09-11T15:17:33.692Z,1013.19
2016-09-11T15:18:14.453Z,1013.2
2016-09-11T15:18:55.185Z,1013.19
2016-09-11T15:19:36.233Z,1013.19
2016-09-11T15:20:17.787Z,1013.21
2016-09-11T15:20:58.775Z,1013.15
2016-09-11T15:21:39.669Z,1013.19
2016-09-11T15:22:20.745Z,1013.19
2016-09-11T15:23:02.643Z,1013.2
2016-09-11T15:23:43.499Z,1013.21
2016-09-11T15:24:24.501Z,1013.25
2016-09-11T15:25:05.252Z,1013.26
2016-09-11T15:25:46.014Z,1013.28
2016-09-11T15:26:26.760Z,1013.26
2016-09-11T15:27:07.499Z,1013.3
2016-09-11T15:27:48.211Z,1013.28
2016-09-11T15:28:29.042Z,1013.34
2016-09-11T15:29:09.805Z,1013.33
2016-09-11T15:29:50.723Z,1013.3
2016-09-11T15:30:31.539Z,1013.32
2016-09-11T15:31:12.684Z,1013.35
2016-09-11T15:31:53.524Z,1013.34
2016-09-11T15:32:34.471Z,1013.36
2016-09-11T15:33:15.466Z,1013.3
2016-09-11T15:33:56.198Z,1013.33
2016-09-11T15:34:37.074Z,1013.34
2016-09-11T15:35:18.821Z,1013.34
2016-09-11T15:35:59.642Z,1013.29
2016-09-11T15:36:41.274Z,1013.25
2016-09-11T15:37:22.051Z,1013.27
2016-09-11T15:38:03.427Z,1013.31
2016-09-11T15:38:43.877Z,1013.27
2016-09-11T15:39:24.702Z,1013.33
2016-09-11T15:40:05.421Z,1013.35
2016-09-11T15:40:47.098Z,1013.3
2016-09-11T15:41:27.724Z,1013.32
2016-09-11T15:42:08.679Z,1013.3
2016-09-11T15:42:49.497Z,1013.29
2016-09-11T15:43:30.442Z,1013.29
2016-09-11T15:44:11.990Z,1013.31
2016-09-11T15:44:52.680Z,1013.33
2016-09-11T15:45:33.724Z,1013.34
2016-09-11T15:46:14.458Z,1013.33
2016-09-11T15:46:55.179Z,1013.28
2016-09-11T15:47:35.934Z,1013.25
2016-09-11T15:48:16.851Z,1013.28
2016-09-11T15:48:57.581Z,1013.31
2016-09-11T15:49:38.672Z,1013.29
2016-09-11T15:50:19.447Z,1013.27
2016-09-11T15:51:00.192Z,1013.22
2016-09-11T15:51:40.935Z,1013.21
2016-09-11T15:52:22.074Z,1013.25
2016-09-11T15:53:06.094Z,1013.25
2016-09-11T15:53:47.107Z,1013.26
2016-09-11T15:54:27.953Z,1013.24
2016-09-11T15:55:08.787Z,1013.27
2016-09-11T15:55:49.515Z,1013.31
2016-09-11T15:56:30.310Z,1013.29
2016-09-11T15:57:11.051Z,1013.23
2016-09-11T15:57:51.826Z,1013.22
2016-09-11T15:58:32.628Z,1013.21
2016-09-11T15:59:13.490Z,1013.23
2016-09-11T15:59:54.219Z,1013.29
2016-09-11T16:00:35.017Z,1013.23
2016-09-11T16:01:15.822Z,1013.2
2016-09-11T16:01:56.548Z,1013.22
2016-09-11T16:02:37.282Z,1013.19
2016-09-11T16:03:18.027Z,1013.21
2016-09-11T16:03:58.789Z,1013.15
2016-09-11T16:04:39.516Z,1013.17
2016-09-11T16:05:20.279Z,1013.2
2016-09-11T16:06:01.055Z,1013.15
2016-09-11T16:06:41.926Z,1013.1
2016-09-11T16:07:22.729Z,1013.16
2016-09-11T16:08:03.477Z,1013.13
2016-09-11T16:08:44.204Z,1013.15
2016-09-11T16:09:24.982Z,1013.15
2016-09-11T16:10:06.008Z,1013.14
2016-09-11T16:10:46.669Z,1013.15
2016-09-11T16:11:27.369Z,1013.12
2016-09-11T16:12:08.216Z,1013.15
2016-09-11T16:12:49.041Z,1013.11
2016-09-11T16:13:29.878Z,1013.13
2016-09-11T16:14:10.661Z,1013.13
2016-09-11T16:14:51.458Z,1013.15
2016-09-11T16:15:32.345Z,1013.16
2016-09-11T16:16:13.119Z,1013.17
2016-09-11T16:16:53.907Z,1013.15
2016-09-11T16:17:34.746Z,1013.14
2016-09-11T16:18:16.045Z,1013.12
2016-09-11T16:18:56.850Z,1013.16
2016-09-11T16:19:37.662Z,1013.18
2016-09-11T16:20:18.415Z,1013.12
2016-09-11T16:20:59.194Z,1013.14
2016-09-11T16:21:39.927Z,1013.12
2016-09-11T16:22:20.734Z,1013.14
2016-09-11T16:23:01.489Z,1013.18
2016-09-11T16:23:42.506Z,1013.14
2016-09-11T16:24:23.262Z,1013.11
2016-09-11T16:25:04.119Z,1013.14
2016-09-11T16:25:44.909Z,1013.09
2016-09-11T16:26:25.653Z,1013.12
2016-09-11T16:27:06.374Z,1013.17
2016-09-11T16:27:47.141Z,1013.13
2016-09-11T16:28:27.905Z,1013.18
2016-09-11T16:29:08.687Z,1013.2
2016-09-11T16:29:49.530Z,1013.21
2016-09-11T16:30:30.269Z,1013.19
2016-09-11T16:31:11.047Z,1013.18
2016-09-11T16:31:51.772Z,1013.12
2016-09-11T16:32:32.575Z,1013.21
2016-09-11T16:33:13.404Z,1013.23
2016-09-11T16:33:54.211Z,1013.2
2016-09-11T16:34:34.943Z,1013.21
2016-09-11T16:35:15.682Z,1013.25
2016-09-11T16:35:56.453Z,1013.23
2016-09-11T16:36:37.277Z,1013.23
2016-09-11T16:37:18.035Z,1013.23
2016-09-11T16:37:58.781Z,1013.24
2016-09-11T16:38:39.855Z,1013.2
2016-09-11T16:39:20.660Z,1013.22
2016-09-11T16:40:01.422Z,1013.2
2016-09-11T16:40:42.171Z,1013.23
2016-09-11T16:41:22.911Z,1013.25
2016-09-11T16:42:03.742Z,1013.26
2016-09-11T16:42:44.622Z,1013.27
2016-09-11T16:43:25.354Z,1013.24
2016-09-11T16:44:06.078Z,1013.31
2016-09-11T16:44:46.823Z,1013.28
2016-09-11T16:45:27.614Z,1013.29
2016-09-11T16:46:08.362Z,1013.29
2016-09-11T16:46:49.119Z,1013.31
2016-09-11T16:47:29.871Z,1013.31
2016-09-11T16:48:10.915Z,1013.34
2016-09-11T16:48:51.630Z,1013.29
2016-09-11T16:49:32.390Z,1013.32
2016-09-11T16:50:13.286Z,1013.29
2016-09-11T16:50:54.182Z,1013.3
2016-09-11T16:51:34.999Z,1013.35
2016-09-11T16:52:15.754Z,1013.31
2016-09-11T16:52:56.501Z,1013.35
2016-09-11T16:53:37.256Z,1013.31
2016-09-11T16:54:18.036Z,1013.33
2016-09-11T16:54:58.796Z,1013.34
2016-09-11T16:55:39.600Z,1013.34
2016-09-11T16:56:20.408Z,1013.36
2016-09-11T16:57:01.207Z,1013.34
2016-09-11T16:57:41.961Z,1013.36
2016-09-11T16:58:22.690Z,1013.35
2016-09-11T16:59:03.720Z,1013.36
2016-09-11T16:59:44.460Z,1013.35
2016-09-11T17:00:25.206Z,1013.37
2016-09-11T17:01:05.911Z,1013.33
2016-09-11T17:01:46.692Z,1013.35
2016-09-11T17:02:27.405Z,1013.39
2016-09-11T17:03:08.176Z,1013.38
2016-09-11T17:03:48.998Z,1013.35
2016-09-11T17:04:29.733Z,1013.32
2016-09-11T17:05:10.763Z,1013.35
2016-09-11T17:05:51.708Z,1013.36
2016-09-11T17:06:32.475Z,1013.36
2016-09-11T17:07:13.278Z,1013.35
2016-09-11T17:07:54.111Z,1013.37
2016-09-11T17:08:34.857Z,1013.37
2016-09-11T17:09:15.614Z,1013.38
2016-09-11T17:09:56.502Z,1013.35
2016-09-11T17:10:37.814Z,1013.4
2016-09-11T17:11:18.636Z,1013.36
2016-09-11T17:11:59.379Z,1013.37
2016-09-11T17:12:40.190Z,1013.4
2016-09-11T17:13:20.961Z,1013.34
2016-09-11T17:14:02.014Z,1013.35
2016-09-11T17:14:42.505Z,1013.36
2016-09-11T17:15:23.221Z,1013.38
2016-09-11T17:16:04.065Z,1013.35
2016-09-11T17:16:44.925Z,1013.32
2016-09-11T17:17:25.740Z,1013.36
2016-09-11T17:18:06.561Z,1013.3
2016-09-11T17:18:47.352Z,1013.29
2016-09-11T17:19:28.124Z,1013.27
2016-09-11T17:20:08.866Z,1013.28
2016-09-11T17:20:49.573Z,1013.27
2016-09-11T17:21:30.367Z,1013.25
2016-09-11T17:22:11.127Z,1013.28
2016-09-11T17:22:51.945Z,1013.23
2016-09-11T17:23:32.718Z,1013.28
2016-09-11T17:24:13.506Z,1013.26
2016-09-11T17:24:54.280Z,1013.26
2016-09-11T17:25:35.078Z,1013.3
2016-09-11T17:26:15.806Z,1013.28
2016-09-11T17:26:56.605Z,1013.26
2016-09-11T17:27:37.364Z,1013.3
2016-09-11T17:28:18.105Z,1013.35
2016-09-11T17:28:58.847Z,1013.38
2016-09-11T17:29:39.600Z,1013.39
2016-09-11T17:30:20.445Z,1013.38
2016-09-11T17:31:01.263Z,1013.39
2016-09-11T17:31:42.162Z,1013.43
2016-09-11T17:32:22.941Z,1013.39
2016-09-11T17:33:03.906Z,1013.37
2016-09-11T17:33:44.610Z,1013.37
2016-09-11T17:34:25.472Z,1013.36
2016-09-11T17:35:06.237Z,1013.37
2016-09-11T17:35:46.997Z,1013.33
2016-09-11T17:36:27.800Z,1013.33
2016-09-11T17:37:08.594Z,1013.28
2016-09-11T17:37:49.353Z,1013.31
2016-09-11T17:38:30.080Z,1013.32
2016-09-11T17:39:10.836Z,1013.33
2016-09-11T17:39:51.579Z,1013.34
2016-09-11T17:40:32.957Z,1013.35
2016-09-11T17:41:13.719Z,1013.32
2016-09-11T17:41:54.504Z,1013.33
2016-09-11T17:42:35.334Z,1013.3
2016-09-11T17:43:16.109Z,1013.28
2016-09-11T17:43:56.901Z,1013.31
2016-09-11T17:44:37.634Z,1013.29
2016-09-11T17:45:18.391Z,1013.3
2016-09-11T17:45:59.198Z,1013.31
2016-09-11T17:46:40.869Z,1013.27
2016-09-11T17:47:21.660Z,1013.31
2016-09-11T17:48:02.420Z,1013.3
2016-09-11T17:48:43.543Z,1013.3
2016-09-11T17:49:24.310Z,1013.33
2016-09-11T17:50:05.018Z,1013.33
2016-09-11T17:50:45.779Z,1013.32
2016-09-11T17:51:26.502Z,1013.29
2016-09-11T17:52:07.302Z,1013.31
2016-09-11T17:52:48.097Z,1013.34
2016-09-11T17:53:28.914Z,1013.38
2016-09-11T17:54:09.822Z,1013.35
2016-09-11T17:54:50.630Z,1013.33
2016-09-11T17:55:31.379Z,1013.32
2016-09-11T17:56:12.368Z,1013.32
2016-09-11T17:56:53.207Z,1013.31
2016-09-11T17:57:33.943Z,1013.32
2016-09-11T17:58:14.698Z,1013.32
2016-09-11T17:58:55.454Z,1013.32
2016-09-11T17:59:37.038Z,1013.29
2016-09-11T18:00:18.191Z,1013.32
2016-09-11T18:00:58.914Z,1013.3
2016-09-11T18:01:40.318Z,1013.32
2016-09-11T18:02:21.084Z,1013.31
2016-09-11T18:03:01.956Z,1013.29
2016-09-11T18:03:42.700Z,1013.28
2016-09-11T18:04:23.437Z,1013.32
2016-09-11T18:05:04.173Z,1013.31
2016-09-11T18:05:45.112Z,1013.3
2016-09-11T18:06:25.830Z,1013.3
2016-09-11T18:07:06.569Z,1013.29
2016-09-11T18:07:47.263Z,1013.3
2016-09-11T18:08:28.027Z,1013.34
2016-09-11T18:09:08.838Z,1013.3
2016-09-11T18:09:49.625Z,1013.33
2016-09-11T18:10:30.405Z,1013.32
2016-09-11T18:11:11.205Z,1013.32
2016-09-11T18:11:52.045Z,1013.33
2016-09-11T18:12:32.824Z,1013.34
2016-09-11T18:13:13.640Z,1013.29
2016-09-11T18:13:54.437Z,1013.33
2016-09-11T18:14:36.209Z,1013.32
2016-09-11T18:15:17.133Z,1013.35
2016-09-11T18:15:57.839Z,1013.37
2016-09-11T18:16:38.576Z,1013.32
2016-09-11T18:17:19.421Z,1013.31
2016-09-11T18:18:00.245Z,1013.35
2016-09-11T18:18:41.046Z,1013.38
2016-09-11T18:19:21.917Z,1013.35
2016-09-11T18:20:02.839Z,1013.35
2016-09-11T18:20:43.666Z,1013.41
2016-09-11T18:21:24.482Z,1013.4
2016-09-11T18:22:05.251Z,1013.38
2016-09-11T18:22:46.011Z,1013.4
2016-09-11T18:23:26.850Z,1013.43
2016-09-11T18:24:07.613Z,1013.42
2016-09-11T18:24:48.549Z,1013.4
2016-09-11T18:25:29.269Z,1013.42
2016-09-11T18:26:09.984Z,1013.43
2016-09-11T18:26:50.720Z,1013.45
2016-09-11T18:27:31.510Z,1013.47
2016-09-11T18:28:12.511Z,1013.41
2016-09-11T18:28:53.306Z,1013.44
2016-09-11T18:29:34.199Z,1013.42
2016-09-11T18:30:15.017Z,1013.44
2016-09-11T18:30:55.752Z,1013.46
2016-09-11T18:31:36.557Z,1013.46
2016-09-11T18:32:17.290Z,1013.44
2016-09-11T18:32:58.080Z,1013.45
2016-09-11T18:33:38.837Z,1013.43
2016-09-11T18:34:19.580Z,1013.44
2016-09-11T18:35:00.480Z,1013.41
2016-09-11T18:35:41.359Z,1013.44
2016-09-11T18:36:22.199Z,1013.42
2016-09-11T18:37:03.018Z,1013.41
2016-09-11T18:37:43.713Z,1013.44
2016-09-11T18:38:24.503Z,1013.44
2016-09-11T18:39:05.307Z,1013.42
2016-09-11T18:39:46.204Z,1013.42
2016-09-11T18:40:26.998Z,1013.43
2016-09-11T18:41:07.865Z,1013.4
2016-09-11T18:41:48.571Z,1013.39
2016-09-11T18:42:29.365Z,1013.4
2016-09-11T18:43:10.081Z,1013.44
2016-09-11T18:43:50.876Z,1013.4
2016-09-11T18:44:31.619Z,1013.41
2016-09-11T18:45:13.091Z,1013.38
2016-09-11T18:45:53.827Z,1013.39
2016-09-11T18:46:34.611Z,1013.39
2016-09-11T18:47:15.336Z,1013.4
2016-09-11T18:47:56.090Z,1013.39
2016-09-11T18:48:36.892Z,1013.38
2016-09-11T18:49:17.694Z,1013.4
2016-09-11T18:49:58.492Z,1013.39
2016-09-11T18:50:39.266Z,1013.41
2016-09-11T18:51:20.010Z,1013.38
2016-09-11T18:52:00.765Z,1013.39
2016-09-11T18:52:41.639Z,1013.41
2016-09-11T18:53:22.362Z,1013.38
2016-09-11T18:54:03.109Z,1013.42
2016-09-11T18:54:43.840Z,1013.38
2016-09-11T18:55:24.554Z,1013.4
2016-09-11T18:56:05.303Z,1013.41
2016-09-11T18:56:46.134Z,1013.43
2016-09-11T18:57:26.934Z,1013.4
2016-09-11T18:58:07.781Z,1013.41
2016-09-11T18:58:48.511Z,1013.47
2016-09-11T18:59:29.396Z,1013.44
2016-09-11T19:00:10.174Z,1013.46
2016-09-11T19:00:50.957Z,1013.47
2016-09-11T19:01:31.741Z,1013.51
2016-09-11T19:02:12.513Z,1013.54
2016-09-11T19:02:53.287Z,1013.55
2016-09-11T19:03:34.057Z,1013.54
2016-09-11T19:04:14.977Z,1013.62
2016-09-11T19:04:55.744Z,1013.56
2016-09-11T19:05:36.497Z,1013.6
2016-09-11T19:06:17.362Z,1013.57
2016-09-11T19:06:58.055Z,1013.59
2016-09-11T19:07:38.804Z,1013.59
2016-09-11T19:08:19.611Z,1013.59
2016-09-11T19:09:00.366Z,1013.59
2016-09-11T19:09:41.109Z,1013.59
2016-09-11T19:10:21.822Z,1013.61
2016-09-11T19:11:02.746Z,1013.58
2016-09-11T19:11:43.422Z,1013.6
2016-09-11T19:12:24.219Z,1013.62
2016-09-11T19:13:05.157Z,1013.61
2016-09-11T19:13:45.721Z,1013.61
2016-09-11T19:14:26.500Z,1013.64
2016-09-11T19:15:07.276Z,1013.66
2016-09-11T19:15:48.225Z,1013.64
2016-09-11T19:16:28.705Z,1013.67
2016-09-11T19:17:09.442Z,1013.7
2016-09-11T19:17:50.237Z,1013.71
2016-09-11T19:18:31.213Z,1013.7
2016-09-11T19:19:11.945Z,1013.71
2016-09-11T19:19:52.728Z,1013.74
2016-09-11T19:20:33.480Z,1013.74
2016-09-11T19:21:14.215Z,1013.73
2016-09-11T19:21:55.046Z,1013.78
2016-09-11T19:22:35.970Z,1013.77
2016-09-11T19:23:16.779Z,1013.78
2016-09-11T19:23:57.589Z,1013.77
2016-09-11T19:24:38.281Z,1013.78
2016-09-11T19:25:19.057Z,1013.79
2016-09-11T19:25:59.824Z,1013.82
2016-09-11T19:26:40.629Z,1013.77
2016-09-11T19:27:21.452Z,1013.82
2016-09-11T19:28:02.250Z,1013.83
2016-09-11T19:28:43.051Z,1013.8
2016-09-11T19:29:23.860Z,1013.81
2016-09-11T19:30:04.649Z,1013.83
2016-09-11T19:30:45.422Z,1013.86
2016-09-11T19:31:26.173Z,1013.81
2016-09-11T19:32:06.902Z,1013.81
2016-09-11T19:32:47.756Z,1013.81
2016-09-11T19:33:28.463Z,1013.81
2016-09-11T19:34:09.270Z,1013.8
2016-09-11T19:34:50.024Z,1013.77
2016-09-11T19:35:30.825Z,1013.77
2016-09-11T19:36:11.544Z,1013.79
2016-09-11T19:36:52.340Z,1013.77
2016-09-11T19:37:33.100Z,1013.8
2016-09-11T19:38:13.858Z,1013.78
2016-09-11T19:38:54.583Z,1013.8
2016-09-11T19:39:35.305Z,1013.81
2016-09-11T19:40:16.142Z,1013.81
2016-09-11T19:40:56.867Z,1013.83
2016-09-11T19:41:37.621Z,1013.83
2016-09-11T19:42:18.350Z,1013.8
2016-09-11T19:42:59.117Z,1013.82
2016-09-11T19:43:39.824Z,1013.82
2016-09-11T19:44:20.595Z,1013.83
2016-09-11T19:45:01.389Z,1013.81
2016-09-11T19:45:42.126Z,1013.84
2016-09-11T19:46:22.919Z,1013.8
2016-09-11T19:47:03.754Z,1013.84
2016-09-11T19:47:44.470Z,1013.84
2016-09-11T19:48:25.215Z,1013.74
2016-09-11T19:49:05.948Z,1013.8
2016-09-11T19:49:46.799Z,1013.78